Time;durP1;ratioP1;P1;durP2;ratioP2;P2;SDS_P1;SDS_P2;PMS_P1;PMS_P2;Temp;Humidity;BMP_temperature;BMP_pressure;BME280_temperature;BME280_humidity;BME280_pressure;Samples;Min_cycle;Max_cycle;Signal;HPM_P1;HPM_P2
2022/12/03 00:00:49;;;;;;;7.60;7.40;;;2.40;99.90;;;;;;5078678;28;20234;-79
2022/12/03 00:03:16;;;;;;;7.60;7.40;;;2.50;99.90;;;;;;5080652;28;20262;-78
2022/12/03 00:05:44;;;;;;;7.60;7.40;;;2.50;99.90;;;;;;5088262;28;20314;-78
2022/12/03 00:08:11;;;;;;;7.60;7.40;;;2.50;99.90;;;;;;5095474;28;20229;-78
2022/12/03 00:10:42;;;;;;;7.63;7.43;;;2.40;99.90;;;;;;5114534;28;20225;-78
2022/12/03 00:13:09;;;;;;;7.70;7.50;;;2.10;99.90;;;;;;5114710;28;20225;-80
2022/12/03 00:15:37;;;;;;;7.40;7.20;;;2.10;99.90;;;;;;5099596;28;20225;-79
2022/12/03 00:18:05;;;;;;;7.63;7.43;;;2.10;99.90;;;;;;5099343;28;20260;-79
2022/12/03 00:20:33;;;;;;;7.53;7.33;;;2.20;99.90;;;;;;5099056;28;20238;-78
2022/12/03 00:23:00;;;;;;;7.40;7.20;;;2.20;99.90;;;;;;5098581;28;20232;-78
2022/12/03 00:25:31;;;;;;;7.47;7.27;;;2.20;99.90;;;;;;5100055;28;20316;-79
2022/12/03 00:28:00;;;;;;;7.40;7.20;;;2.20;99.90;;;;;;5101798;28;20240;-79
2022/12/03 00:30:28;;;;;;;7.40;7.20;;;2.20;99.90;;;;;;5101286;28;20253;-79
2022/12/03 00:32:55;;;;;;;7.30;7.10;;;2.30;99.90;;;;;;5099937;28;20321;-78
2022/12/03 00:35:23;;;;;;;7.30;7.10;;;2.30;99.90;;;;;;5082076;28;20321;-78
2022/12/03 00:37:50;;;;;;;7.30;7.10;;;2.20;99.90;;;;;;5100415;28;20259;-77
2022/12/03 00:40:21;;;;;;;7.43;7.23;;;2.20;99.90;;;;;;5098775;28;20311;-78
2022/12/03 00:42:52;;;;;;;7.30;7.10;;;2.20;99.90;;;;;;5097993;28;20259;-78
2022/12/03 00:45:24;;;;;;;7.30;7.10;;;2.30;99.90;;;;;;5098636;28;20716;-79
2022/12/03 00:47:51;;;;;;;7.30;7.10;;;2.30;99.90;;;;;;5099551;28;20229;-79
2022/12/03 00:50:19;;;;;;;7.40;7.20;;;2.30;99.90;;;;;;5099308;28;20230;-79
2022/12/03 00:52:46;;;;;;;7.63;7.43;;;2.30;99.90;;;;;;5098867;28;20230;-79
2022/12/03 00:55:14;;;;;;;7.23;7.03;;;2.30;99.90;;;;;;5100305;28;20229;-80
2022/12/03 00:57:42;;;;;;;7.50;7.30;;;2.30;99.90;;;;;;5100493;28;20289;-79
2022/12/03 01:00:11;;;;;;;7.63;7.43;;;2.30;99.90;;;;;;5100808;28;20221;-79
2022/12/03 01:02:41;;;;;;;7.63;7.43;;;2.30;99.90;;;;;;5104842;28;20228;-78
2022/12/03 01:05:10;;;;;;;7.80;7.60;;;2.30;99.90;;;;;;5100207;28;20278;-79
2022/12/03 01:07:37;;;;;;;7.70;7.50;;;2.40;99.90;;;;;;5099391;28;20248;-79
2022/12/03 01:10:06;;;;;;;7.60;7.40;;;2.40;99.90;;;;;;5099481;28;20230;-80
2022/12/03 01:12:33;;;;;;;7.57;7.37;;;2.40;99.90;;;;;;5099830;28;20283;-79
2022/12/03 01:15:04;;;;;;;7.80;7.60;;;2.50;99.90;;;;;;5105389;28;20229;-79
2022/12/03 01:17:31;;;;;;;7.70;7.50;;;2.50;99.90;;;;;;5105569;28;20229;-79
2022/12/03 01:20:00;;;;;;;7.70;7.50;;;2.50;99.90;;;;;;5103735;28;20227;-80
2022/12/03 01:22:28;;;;;;;7.67;7.47;;;2.50;99.90;;;;;;5099732;28;20260;-79
2022/12/03 01:24:55;;;;;;;7.63;7.43;;;2.50;99.90;;;;;;5099361;28;20236;-79
2022/12/03 01:27:23;;;;;;;7.67;7.47;;;2.50;99.90;;;;;;5099644;28;20308;-79
2022/12/03 01:29:50;;;;;;;7.80;7.60;;;2.60;99.90;;;;;;5102656;28;20229;-80
2022/12/03 01:32:18;;;;;;;7.80;7.60;;;2.70;99.90;;;;;;5102339;28;20304;-79
2022/12/03 01:34:46;;;;;;;7.80;7.60;;;2.70;99.90;;;;;;5099951;28;20318;-79
2022/12/03 01:37:15;;;;;;;7.80;7.60;;;2.70;99.90;;;;;;5098577;28;20249;-80
2022/12/03 01:39:43;;;;;;;7.87;7.67;;;2.70;99.90;;;;;;5098421;28;20218;-79
2022/12/03 01:42:17;;;;;;;7.53;7.33;;;2.60;99.90;;;;;;5099029;28;20222;-80
2022/12/03 01:44:45;;;;;;;7.60;7.40;;;2.60;99.90;;;;;;5099792;28;20236;-80
2022/12/03 01:47:17;;;;;;;7.83;7.63;;;2.50;99.90;;;;;;5098613;28;20247;-79
2022/12/03 01:49:49;;;;;;;7.90;7.70;;;2.40;99.90;;;;;;5099340;28;20259;-79
2022/12/03 01:52:23;;;;;;;7.90;7.70;;;2.50;99.90;;;;;;5099624;28;20229;-80
2022/12/03 01:54:54;;;;;;;7.70;7.50;;;2.50;99.90;;;;;;5103251;28;20297;-79
2022/12/03 01:57:26;;;;;;;7.80;7.60;;;2.60;99.90;;;;;;5101966;28;20269;-79
2022/12/03 01:59:55;;;;;;;7.80;7.60;;;2.60;99.90;;;;;;5099764;28;20233;-79
2022/12/03 02:02:26;;;;;;;7.80;7.60;;;2.60;99.90;;;;;;5099899;28;20293;-80
2022/12/03 02:04:54;;;;;;;7.60;7.40;;;2.60;99.90;;;;;;5100806;28;20293;-80
2022/12/03 02:07:27;;;;;;;7.80;7.60;;;2.70;99.90;;;;;;5099795;28;20297;-79
2022/12/03 02:09:57;;;;;;;7.80;7.60;;;2.70;99.90;;;;;;5099673;28;20308;-79
2022/12/03 02:12:29;;;;;;;7.70;7.50;;;2.80;99.90;;;;;;5100073;28;20228;-78
2022/12/03 02:14:57;;;;;;;7.80;7.60;;;2.80;99.90;;;;;;5100380;28;20229;-79
2022/12/03 02:17:25;;;;;;;7.53;7.33;;;2.80;99.90;;;;;;5097262;28;20324;-79
2022/12/03 02:19:54;;;;;;;7.90;7.70;;;2.70;99.90;;;;;;5100261;28;20229;-79
2022/12/03 02:22:35;;;;;;;7.80;7.60;;;2.80;99.90;;;;;;5098206;28;20226;-80
2022/12/03 02:25:14;;;;;;;7.83;7.63;;;2.80;99.90;;;;;;5101721;28;20228;-80
2022/12/03 02:27:42;;;;;;;7.60;7.40;;;2.70;99.90;;;;;;5101405;28;20252;-79
2022/12/03 02:30:12;;;;;;;7.70;7.50;;;2.80;99.90;;;;;;5102829;28;20261;-79
2022/12/03 02:32:40;;;;;;;7.70;7.50;;;2.80;99.90;;;;;;5107112;28;20281;-79
2022/12/03 02:35:15;;;;;;;7.80;7.60;;;2.70;99.90;;;;;;5112569;28;20312;-79
2022/12/03 02:37:44;;;;;;;8.07;7.87;;;2.60;99.90;;;;;;5113121;28;20232;-80
2022/12/03 02:40:18;;;;;;;8.00;7.80;;;2.60;99.90;;;;;;5114018;28;20316;-79
2022/12/03 02:42:48;;;;;;;7.90;7.70;;;2.60;99.90;;;;;;5113722;28;20225;-79
2022/12/03 02:45:21;;;;;;;7.90;7.70;;;2.70;99.90;;;;;;5115092;28;20309;-79
2022/12/03 02:47:52;;;;;;;7.80;7.60;;;2.70;99.90;;;;;;5114261;28;20233;-79
2022/12/03 02:50:23;;;;;;;7.70;7.50;;;2.70;99.90;;;;;;5114265;28;20222;-78
2022/12/03 02:52:53;;;;;;;7.90;7.70;;;2.80;99.90;;;;;;5115307;28;20213;-79
2022/12/03 02:55:22;;;;;;;8.00;7.80;;;2.80;99.90;;;;;;5114756;28;20296;-79
2022/12/03 02:57:51;;;;;;;7.60;7.40;;;2.80;99.90;;;;;;5115060;28;20226;-79
2022/12/03 03:00:21;;;;;;;7.80;7.60;;;2.80;99.90;;;;;;5115081;28;20245;-79
2022/12/03 03:02:50;;;;;;;7.50;7.30;;;2.80;99.90;;;;;;5117364;28;20245;-78
2022/12/03 03:05:22;;;;;;;7.73;7.53;;;2.80;99.90;;;;;;5115908;28;20221;-79
2022/12/03 03:07:50;;;;;;;7.77;7.57;;;2.90;99.90;;;;;;5115126;28;20245;-79
2022/12/03 03:10:23;;;;;;;7.80;7.60;;;2.90;99.90;;;;;;5115386;28;20222;-78
2022/12/03 03:12:53;;;;;;;7.70;7.50;;;2.90;99.90;;;;;;5115084;28;20228;-79
2022/12/03 03:15:21;;;;;;;7.80;7.60;;;3.00;99.90;;;;;;5114783;28;20260;-79
2022/12/03 03:17:49;;;;;;;7.90;7.70;;;2.80;99.90;;;;;;5114373;28;20237;-79
2022/12/03 03:20:17;;;;;;;7.90;7.70;;;2.90;99.90;;;;;;5113911;28;20229;-79
2022/12/03 03:22:45;;;;;;;7.87;7.67;;;2.90;99.90;;;;;;5114751;28;20214;-79
2022/12/03 03:25:16;;;;;;;7.80;7.60;;;2.90;99.90;;;;;;5115120;28;20239;-79
2022/12/03 03:27:46;;;;;;;7.87;7.67;;;2.90;99.90;;;;;;5113993;28;20240;-79
2022/12/03 03:30:14;;;;;;;7.93;7.73;;;2.90;99.90;;;;;;5113980;28;20240;-79
2022/12/03 03:32:43;;;;;;;8.00;7.80;;;2.90;99.90;;;;;;5113057;28;20240;-79
2022/12/03 03:35:13;;;;;;;8.10;7.90;;;2.90;99.90;;;;;;5113964;28;20253;-79
2022/12/03 03:37:41;;;;;;;8.00;7.80;;;2.90;99.90;;;;;;5117068;28;20239;-79
2022/12/03 03:40:10;;;;;;;7.90;7.70;;;2.70;99.90;;;;;;5104308;28;20233;-79
2022/12/03 03:42:39;;;;;;;7.90;7.70;;;2.70;99.90;;;;;;5100854;28;20220;-79
2022/12/03 03:45:10;;;;;;;7.80;7.60;;;2.80;99.90;;;;;;5100965;28;20320;-79
2022/12/03 03:47:38;;;;;;;8.00;7.80;;;2.70;99.90;;;;;;5104623;28;20233;-79
2022/12/03 03:50:08;;;;;;;8.07;7.87;;;2.60;99.90;;;;;;5110733;28;20238;-78
2022/12/03 03:52:37;;;;;;;7.90;7.70;;;2.70;99.90;;;;;;5093211;28;20228;-79
2022/12/03 03:55:06;;;;;;;8.07;7.87;;;2.70;99.90;;;;;;5102140;28;20233;-79
2022/12/03 03:57:34;;;;;;;7.90;7.70;;;2.70;99.90;;;;;;5100179;28;20325;-79
2022/12/03 04:00:03;;;;;;;8.20;8.00;;;2.60;99.90;;;;;;5100760;28;20241;-80
2022/12/03 04:02:33;;;;;;;8.00;7.80;;;2.60;99.90;;;;;;5100466;28;20233;-80
2022/12/03 04:05:01;;;;;;;8.00;7.80;;;2.60;99.90;;;;;;5101832;28;20240;-80
2022/12/03 04:07:28;;;;;;;8.10;7.90;;;2.40;99.90;;;;;;5101272;28;20229;-80
2022/12/03 04:09:56;;;;;;;8.10;7.90;;;2.30;99.90;;;;;;5100732;28;20255;-80
2022/12/03 04:15:09;;;;;;;8.10;7.90;;;2.20;99.90;;;;;;5102820;28;20316;-79
2022/12/03 04:17:38;;;;;;;8.10;7.90;;;1.90;99.90;;;;;;5101541;28;20238;-80
2022/12/03 04:20:07;;;;;;;8.10;7.90;;;1.90;99.90;;;;;;5100637;28;20285;-80
2022/12/03 04:22:39;;;;;;;8.23;8.03;;;1.90;99.90;;;;;;5100613;28;20228;-81
2022/12/03 04:30:39;;;;;;;8.23;8.03;;;1.80;99.90;;;;;;5084626;28;20209;-80
2022/12/03 04:35:52;;;;;;;8.20;8.00;;;1.80;99.90;;;;;;5079468;28;20229;-80
2022/12/03 04:38:20;;;;;;;8.10;7.90;;;1.80;99.90;;;;;;5078869;28;20233;-80
2022/12/03 04:41:04;;;;;;;7.97;7.77;;;1.80;99.90;;;;;;5082031;28;20218;-80
2022/12/03 04:43:33;;;;;;;8.10;7.90;;;1.90;99.90;;;;;;5079986;28;20392;-80
2022/12/03 04:46:02;;;;;;;8.20;8.00;;;1.90;99.90;;;;;;5079255;28;20730;-79
2022/12/03 04:48:31;;;;;;;8.20;8.00;;;1.80;99.90;;;;;;5080312;28;20269;-79
2022/12/03 04:50:59;;;;;;;8.20;8.00;;;1.80;99.90;;;;;;5080656;28;20328;-79
2022/12/03 04:53:26;;;;;;;8.00;7.80;;;1.90;99.90;;;;;;5080573;28;20228;-80
2022/12/03 04:55:54;;;;;;;7.90;7.70;;;1.90;99.90;;;;;;5079769;28;20761;-80
2022/12/03 04:58:21;;;;;;;8.10;7.90;;;1.90;99.90;;;;;;5080598;28;21054;-81
2022/12/03 05:00:49;;;;;;;8.40;8.20;;;1.80;99.90;;;;;;5080032;28;20265;-80
2022/12/03 05:03:16;;;;;;;8.30;8.10;;;1.80;99.90;;;;;;5080101;28;20265;-80
2022/12/03 05:05:45;;;;;;;7.97;7.77;;;1.70;99.90;;;;;;5079983;28;20238;-80
2022/12/03 05:08:13;;;;;;;8.20;8.00;;;1.70;99.90;;;;;;5080368;28;20242;-79
2022/12/03 05:10:40;;;;;;;8.47;8.27;;;1.70;99.90;;;;;;5083330;28;20248;-81
2022/12/03 05:13:08;;;;;;;8.30;8.10;;;1.70;99.90;;;;;;5092182;28;20312;-80
2022/12/03 05:15:35;;;;;;;8.40;8.20;;;1.70;99.90;;;;;;5106837;28;20222;-79
2022/12/03 05:18:03;;;;;;;8.30;8.10;;;1.70;99.90;;;;;;5111475;28;20244;-79
2022/12/03 05:20:43;;;;;;;8.13;7.93;;;1.80;99.90;;;;;;5108310;28;20328;-79
2022/12/03 05:23:14;;;;;;;8.20;8.00;;;1.80;99.90;;;;;;5104393;28;20224;-80
2022/12/03 05:25:41;;;;;;;8.10;7.90;;;1.70;99.90;;;;;;5101289;28;20316;-79
2022/12/03 05:28:09;;;;;;;8.10;7.90;;;1.70;99.90;;;;;;5100320;28;20237;-80
2022/12/03 05:30:38;;;;;;;7.90;7.70;;;1.80;99.90;;;;;;5100911;28;20253;-80
2022/12/03 05:33:06;;;;;;;8.00;7.80;;;1.80;99.90;;;;;;5104987;28;20232;-81
2022/12/03 05:35:34;;;;;;;8.20;8.00;;;1.80;99.90;;;;;;5100853;28;20229;-81
2022/12/03 05:38:01;;;;;;;8.00;7.80;;;1.80;99.90;;;;;;5100957;28;20235;-80
2022/12/03 05:40:30;;;;;;;8.20;8.00;;;1.80;99.90;;;;;;5102318;28;20239;-80
2022/12/03 05:42:57;;;;;;;8.03;7.83;;;1.80;99.90;;;;;;5100279;28;20217;-80
2022/12/03 05:45:26;;;;;;;8.10;7.90;;;1.80;99.90;;;;;;5099584;28;20237;-80
2022/12/03 05:47:55;;;;;;;8.00;7.80;;;1.80;99.90;;;;;;5098059;22;20238;-82
2022/12/03 05:50:32;;;;;;;8.10;7.90;;;1.80;99.90;;;;;;5077442;28;20226;-82
2022/12/03 05:53:00;;;;;;;8.10;7.90;;;1.80;99.90;;;;;;5067633;28;20234;-82
2022/12/03 05:55:32;;;;;;;8.20;8.00;;;1.80;99.90;;;;;;5077695;28;20238;-81
2022/12/03 05:57:59;;;;;;;8.23;8.03;;;1.80;99.90;;;;;;5071513;28;20246;-82
2022/12/03 06:00:36;;;;;;;8.00;7.80;;;1.90;99.90;;;;;;5069657;28;20211;-80
2022/12/03 06:03:09;;;;;;;8.10;7.90;;;1.90;99.90;;;;;;5076148;28;20219;-81
2022/12/03 06:05:37;;;;;;;8.20;8.00;;;1.90;99.90;;;;;;5069896;28;20277;-82
2022/12/03 06:08:10;;;;;;;8.17;7.97;;;1.90;99.90;;;;;;5072153;28;20233;-80
2022/12/03 06:10:39;;;;;;;8.07;7.87;;;1.90;99.90;;;;;;5071670;28;20279;-82
2022/12/03 06:13:07;;;;;;;7.90;7.70;;;1.90;99.90;;;;;;5069368;28;20218;-82
2022/12/03 06:15:36;;;;;;;7.90;7.70;;;1.90;99.90;;;;;;5068943;28;20238;-82
2022/12/03 06:18:05;;;;;;;8.10;7.90;;;1.90;99.90;;;;;;5067544;28;20238;-82
2022/12/03 06:20:34;;;;;;;8.10;7.90;;;1.90;99.90;;;;;;5066153;28;20235;-82
2022/12/03 06:23:06;;;;;;;8.10;7.90;;;1.90;99.90;;;;;;5066370;28;20219;-82
2022/12/03 06:25:34;;;;;;;7.90;7.70;;;1.90;99.90;;;;;;5066670;28;20226;-82
2022/12/03 06:28:06;;;;;;;8.00;7.80;;;1.90;99.90;;;;;;5065495;28;20318;-82
2022/12/03 06:30:34;;;;;;;8.07;7.87;;;1.90;99.90;;;;;;5065995;28;20245;-83
2022/12/03 06:33:02;;;;;;;7.90;7.70;;;2.00;99.90;;;;;;5065447;28;20271;-82
2022/12/03 06:35:31;;;;;;;7.97;7.77;;;2.10;99.90;;;;;;5065553;28;20227;-82
2022/12/03 06:38:02;;;;;;;7.80;7.60;;;2.10;99.90;;;;;;5065520;28;20293;-82
2022/12/03 06:40:30;;;;;;;7.93;7.73;;;2.10;99.90;;;;;;5065091;28;20230;-82
2022/12/03 06:42:59;;;;;;;7.90;7.70;;;2.20;99.90;;;;;;5065145;28;20249;-82
2022/12/03 06:45:38;;;;;;;7.83;7.63;;;2.20;99.90;;;;;;5065326;28;20251;-82
2022/12/03 06:48:07;;;;;;;7.80;7.60;;;2.10;99.90;;;;;;5065226;28;20391;-84
2022/12/03 06:50:36;;;;;;;7.90;7.70;;;2.10;99.90;;;;;;5065236;28;20333;-82
2022/12/03 06:53:08;;;;;;;7.73;7.53;;;2.20;99.90;;;;;;5066012;28;20231;-82
2022/12/03 06:55:36;;;;;;;7.90;7.70;;;2.20;99.90;;;;;;5065821;28;20257;-82
2022/12/03 06:58:05;;;;;;;7.80;7.60;;;2.20;99.90;;;;;;5066089;28;20242;-83
2022/12/03 07:00:36;;;;;;;7.70;7.50;;;2.30;99.90;;;;;;5065884;28;20299;-84
2022/12/03 07:03:04;;;;;;;7.80;7.60;;;2.20;99.90;;;;;;5065936;28;20246;-82
2022/12/03 07:05:33;;;;;;;7.83;7.63;;;2.10;99.90;;;;;;5066292;28;20262;-82
2022/12/03 07:08:05;;;;;;;8.00;7.80;;;2.20;99.90;;;;;;5066307;28;20273;-82
2022/12/03 07:10:41;;;;;;;7.90;7.70;;;2.10;99.90;;;;;;5054363;28;20236;-82
2022/12/03 07:13:10;;;;;;;8.10;7.90;;;2.00;99.90;;;;;;5031165;28;20227;-82
2022/12/03 07:18:29;;;;;;;7.90;7.70;;;2.10;99.90;;;;;;5035946;28;20220;-81
2022/12/03 07:21:07;;;;;;;8.30;8.10;;;2.10;99.90;;;;;;5028871;28;20251;-82
2022/12/03 07:23:35;;;;;;;8.20;8.00;;;2.10;99.90;;;;;;5028802;28;20220;-83
2022/12/03 07:26:04;;;;;;;8.10;7.90;;;2.10;99.90;;;;;;5027957;28;20228;-82
2022/12/03 07:28:36;;;;;;;8.30;8.10;;;2.10;99.90;;;;;;5028675;28;20244;-83
2022/12/03 07:31:05;;;;;;;8.30;8.10;;;2.10;99.90;;;;;;5029508;28;20279;-82
2022/12/03 07:33:33;;;;;;;8.37;8.17;;;2.10;99.90;;;;;;5029904;28;20227;-82
2022/12/03 07:36:01;;;;;;;8.50;8.30;;;2.10;99.90;;;;;;5028545;28;20232;-82
2022/12/03 07:38:31;;;;;;;8.20;8.00;;;2.10;99.90;;;;;;5030087;28;20240;-82
2022/12/03 07:41:04;;;;;;;8.40;8.20;;;2.20;99.90;;;;;;5028233;28;20228;-82
2022/12/03 07:43:32;;;;;;;8.30;8.10;;;2.10;99.90;;;;;;5027356;28;20311;-82
2022/12/03 07:46:00;;;;;;;8.30;8.10;;;2.10;99.90;;;;;;5028069;28;20232;-82
2022/12/03 07:48:40;;;;;;;8.30;8.10;;;2.10;99.90;;;;;;5027305;28;20240;-82
2022/12/03 07:51:08;;;;;;;8.20;8.00;;;2.20;99.90;;;;;;5028381;28;20239;-82
2022/12/03 07:53:36;;;;;;;8.40;8.20;;;2.20;99.90;;;;;;5027605;28;20224;-82
2022/12/03 07:56:06;;;;;;;8.30;8.10;;;2.30;99.90;;;;;;5027929;28;20243;-82
2022/12/03 07:58:37;;;;;;;8.53;8.33;;;2.30;99.90;;;;;;5026776;28;20239;-83
2022/12/03 08:01:07;;;;;;;8.33;8.13;;;2.40;99.90;;;;;;5027735;28;20263;-82
2022/12/03 08:07:33;;;;;;;8.50;8.30;;;2.60;99.90;;;;;;4945199;28;20241;-82
2022/12/03 08:10:05;;;;;;;8.00;7.80;;;2.90;99.90;;;;;;5007056;28;20259;-84
2022/12/03 08:12:41;;;;;;;8.50;8.30;;;2.90;99.90;;;;;;5067929;28;20230;-83
2022/12/03 08:15:22;;;;;;;8.40;8.20;;;3.00;99.90;;;;;;5073883;28;20218;-84
2022/12/03 08:18:00;;;;;;;8.37;8.17;;;3.10;99.90;;;;;;5072394;28;20298;-83
2022/12/03 08:20:47;;;;;;;8.37;8.17;;;3.10;99.90;;;;;;5067618;28;20326;-86
2022/12/03 08:23:23;;;;;;;8.17;7.97;;;3.10;99.90;;;;;;5066219;28;20240;-87
2022/12/03 08:25:52;;;;;;;8.40;8.20;;;3.20;99.90;;;;;;5068242;28;20279;-85
2022/12/03 08:28:22;;;;;;;8.47;8.27;;;3.20;99.90;;;;;;5075273;28;20231;-85
2022/12/03 08:31:01;;;;;;;8.57;8.37;;;3.10;99.90;;;;;;5078562;28;20261;-83
2022/12/03 08:33:38;;;;;;;8.40;8.20;;;3.20;99.90;;;;;;5080327;28;20207;-85
2022/12/03 08:36:17;;;;;;;8.50;8.30;;;3.20;99.90;;;;;;5081345;28;20206;-85
2022/12/03 08:38:54;;;;;;;8.50;8.30;;;3.20;99.90;;;;;;5081171;28;20274;-84
2022/12/03 08:44:37;;;;;;;8.80;8.60;;;3.20;99.90;;;;;;5075859;28;20211;-87
2022/12/03 08:47:16;;;;;;;8.90;8.60;;;3.10;99.90;;;;;;5081294;28;20208;-85
2022/12/03 08:49:50;;;;;;;8.83;8.63;;;3.00;99.90;;;;;;5081966;28;20226;-85
2022/12/03 08:52:23;;;;;;;8.77;8.57;;;3.00;99.90;;;;;;5080505;28;20258;-86
2022/12/03 08:55:02;;;;;;;8.57;8.37;;;2.90;99.90;;;;;;5081142;28;20219;-86
2022/12/03 08:57:34;;;;;;;8.80;8.60;;;2.80;99.90;;;;;;5081329;28;20231;-85
2022/12/03 09:00:18;;;;;;;9.03;8.73;;;2.60;99.90;;;;;;5080329;28;20227;-85
2022/12/03 09:02:57;;;;;;;8.70;8.50;;;2.50;99.90;;;;;;5080510;28;20226;-84
2022/12/03 09:05:34;;;;;;;8.70;8.50;;;2.50;99.90;;;;;;5081280;28;20245;-84
2022/12/03 09:08:04;;;;;;;8.50;8.30;;;2.60;99.90;;;;;;5081086;28;20286;-85
2022/12/03 09:10:42;;;;;;;8.80;8.60;;;2.60;99.90;;;;;;5073044;28;20239;-85
2022/12/03 09:13:11;;;;;;;8.80;8.60;;;2.50;99.90;;;;;;5061344;28;20208;-85
2022/12/03 09:15:43;;;;;;;8.73;8.53;;;2.50;99.90;;;;;;5061339;28;20218;-85
2022/12/03 09:18:13;;;;;;;8.77;8.57;;;2.50;99.90;;;;;;5060814;28;20235;-85
2022/12/03 09:20:40;;;;;;;8.73;8.53;;;2.60;99.90;;;;;;5059689;28;20320;-85
2022/12/03 09:23:11;;;;;;;8.87;8.67;;;2.60;99.90;;;;;;5053809;28;20312;-85
2022/12/03 09:25:42;;;;;;;9.00;8.70;;;2.70;99.90;;;;;;5047355;28;20231;-86
2022/12/03 09:28:09;;;;;;;9.07;8.77;;;2.70;99.90;;;;;;5047376;28;21097;-85
2022/12/03 09:30:37;;;;;;;8.60;8.40;;;2.70;99.90;;;;;;5048012;28;20240;-84
2022/12/03 09:35:57;;;;;;;8.87;8.67;;;2.80;99.90;;;;;;5048079;28;20279;-87
2022/12/03 09:38:25;;;;;;;8.97;8.70;;;2.80;99.90;;;;;;5048214;28;20239;-83
2022/12/03 09:41:02;;;;;;;9.17;8.87;;;2.80;99.90;;;;;;5047270;28;20251;-88
2022/12/03 09:43:33;;;;;;;9.00;8.70;;;2.80;99.90;;;;;;5046124;28;20295;-84
2022/12/03 09:46:01;;;;;;;8.97;8.70;;;2.80;99.90;;;;;;5046352;28;20263;-83
2022/12/03 09:48:30;;;;;;;8.80;8.60;;;2.80;99.90;;;;;;5046695;28;20239;-83
2022/12/03 09:51:17;;;;;;;8.97;8.70;;;2.80;99.90;;;;;;5035229;28;20286;-88
2022/12/03 09:53:48;;;;;;;9.00;8.70;;;2.80;99.90;;;;;;5025720;28;20264;-85
2022/12/03 09:56:24;;;;;;;9.20;8.90;;;2.80;99.90;;;;;;5024872;28;20284;-85
2022/12/03 09:58:58;;;;;;;9.13;8.83;;;2.70;99.90;;;;;;5026106;28;20232;-86
2022/12/03 10:01:26;;;;;;;9.00;8.70;;;2.70;99.90;;;;;;5025510;28;20295;-85
2022/12/03 10:03:57;;;;;;;9.20;8.90;;;2.70;99.90;;;;;;5027489;28;20366;-86
2022/12/03 10:07:10;;;;;;;9.23;8.93;;;2.60;99.90;;;;;;5005082;28;20231;-85
2022/12/03 10:12:35;;;;;;;9.20;8.90;;;2.60;99.90;;;;;;5035769;28;20232;-85
2022/12/03 10:20:47;;;;;;;9.30;9.00;;;2.80;99.90;;;;;;5050317;28;20254;-83
2022/12/03 10:42:30;;;;;;;9.23;8.93;;;3.00;99.90;;;;;;4958615;28;20266;-84
2022/12/03 10:45:17;;;;;;;9.13;8.83;;;2.90;99.90;;;;;;4966782;28;20297;-83
2022/12/03 10:48:09;;;;;;;9.30;9.00;;;2.90;99.90;;;;;;4968295;28;20241;-84
2022/12/03 10:50:57;;;;;;;9.33;9.03;;;2.80;99.90;;;;;;4971963;28;20246;-84
2022/12/03 10:53:34;;;;;;;9.50;9.20;;;2.70;99.90;;;;;;5061757;28;20254;-85
2022/12/03 10:56:31;;;;;;;9.30;9.00;;;2.80;99.90;;;;;;5067511;28;20304;-83
2022/12/03 10:59:54;;;;;;;9.20;8.90;;;2.70;99.90;;;;;;5066393;28;20348;-84
2022/12/03 11:15:18;;;;;;;9.00;8.70;;;2.80;99.90;;;;;;5059456;28;20261;-86
2022/12/03 11:34:47;;;;;;;9.27;8.97;;;2.90;99.90;;;;;;5058703;28;20212;-87
2022/12/03 11:47:46;;;;;;;9.30;9.00;;;2.80;99.90;;;;;;5037502;22;20237;-81
2022/12/03 11:50:22;;;;;;;9.33;9.03;;;2.80;99.90;;;;;;5086054;28;20317;-81
2022/12/03 11:52:54;;;;;;;9.30;9.00;;;2.90;99.90;;;;;;5079333;28;20253;-81
2022/12/03 11:55:30;;;;;;;9.13;8.83;;;2.90;99.90;;;;;;5073969;28;20265;-80
2022/12/03 11:58:00;;;;;;;9.10;8.80;;;2.80;99.90;;;;;;5074752;28;20238;-80
2022/12/03 12:00:28;;;;;;;9.20;8.90;;;2.90;99.90;;;;;;5079617;28;20241;-81
2022/12/03 12:02:58;;;;;;;9.30;9.00;;;2.80;99.90;;;;;;5079136;28;20329;-81
2022/12/03 12:05:32;;;;;;;9.10;8.80;;;2.80;99.90;;;;;;5080715;28;20409;-83
2022/12/03 12:08:02;;;;;;;8.80;8.60;;;2.70;99.90;;;;;;5080626;28;20225;-81
2022/12/03 12:10:46;;;;;;;9.00;8.70;;;2.70;99.90;;;;;;5081449;28;20273;-82
2022/12/03 12:13:49;;;;;;;8.70;8.50;;;2.70;99.90;;;;;;5081308;28;20230;-83
2022/12/03 12:16:49;;;;;;;9.30;9.00;;;2.70;99.90;;;;;;5079238;28;20236;-84
2022/12/03 12:19:36;;;;;;;9.30;9.00;;;2.70;99.90;;;;;;5082728;28;20253;-84
2022/12/03 12:22:31;;;;;;;9.00;8.70;;;2.60;99.90;;;;;;5082036;28;20233;-85
2022/12/03 12:25:01;;;;;;;8.93;8.63;;;2.70;99.90;;;;;;5080066;28;20230;-85
2022/12/03 12:27:36;;;;;;;9.10;8.80;;;2.70;99.90;;;;;;5079878;28;20288;-84
2022/12/03 12:30:07;;;;;;;9.13;8.83;;;2.70;99.90;;;;;;5079562;28;20260;-83
2022/12/03 12:32:46;;;;;;;9.10;8.80;;;2.70;99.90;;;;;;5079790;28;20350;-82
2022/12/03 12:35:19;;;;;;;9.10;8.80;;;2.80;99.90;;;;;;5080902;28;20242;-81
2022/12/03 12:37:52;;;;;;;9.10;8.80;;;2.80;99.90;;;;;;5080494;28;20254;-81
2022/12/03 12:40:23;;;;;;;9.13;8.83;;;2.80;99.90;;;;;;5079350;28;20230;-82
2022/12/03 12:42:54;;;;;;;9.23;8.93;;;2.70;99.90;;;;;;5077312;28;20233;-82
2022/12/03 12:45:24;;;;;;;9.10;8.80;;;2.70;99.90;;;;;;5080154;28;20230;-81
2022/12/03 12:48:04;;;;;;;8.80;8.60;;;2.60;99.90;;;;;;5078399;28;20337;-80
2022/12/03 12:50:33;;;;;;;9.20;8.90;;;2.70;99.90;;;;;;5083585;28;20283;-81
2022/12/03 12:53:09;;;;;;;9.00;8.70;;;2.60;99.90;;;;;;5080193;28;20249;-81
2022/12/03 12:55:37;;;;;;;8.97;8.67;;;2.60;99.90;;;;;;5065786;28;20250;-80
2022/12/03 12:58:13;;;;;;;9.10;8.80;;;2.60;99.90;;;;;;5057777;28;20321;-80
2022/12/03 13:00:41;;;;;;;9.00;8.70;;;2.50;99.90;;;;;;5069968;28;20245;-79
2022/12/03 13:03:11;;;;;;;9.10;8.80;;;2.50;99.90;;;;;;5078175;28;20230;-79
2022/12/03 13:05:43;;;;;;;9.00;8.70;;;2.40;99.90;;;;;;5077456;28;20245;-79
2022/12/03 13:08:26;;;;;;;9.10;8.80;;;2.50;99.90;;;;;;5078091;28;20269;-79
2022/12/03 13:10:55;;;;;;;9.00;8.70;;;2.50;99.90;;;;;;5088942;28;20276;-80
2022/12/03 13:13:29;;;;;;;9.20;8.90;;;2.40;99.90;;;;;;5085638;28;20245;-79
2022/12/03 13:16:07;;;;;;;9.00;8.70;;;2.40;99.90;;;;;;5077789;28;20239;-80
2022/12/03 13:18:41;;;;;;;9.10;8.80;;;2.50;99.90;;;;;;5096829;28;20244;-80
2022/12/03 13:21:23;;;;;;;8.80;8.60;;;2.50;99.90;;;;;;5097505;28;20213;-79
2022/12/03 13:23:54;;;;;;;8.83;8.60;;;2.60;99.90;;;;;;5097629;28;20240;-78
2022/12/03 13:26:27;;;;;;;8.77;8.57;;;2.60;99.90;;;;;;5098095;28;20320;-79
2022/12/03 13:28:56;;;;;;;9.00;8.70;;;2.50;99.90;;;;;;5097901;28;20236;-79
2022/12/03 13:31:27;;;;;;;9.00;8.70;;;2.50;99.90;;;;;;5098269;28;20232;-80
2022/12/03 13:34:00;;;;;;;9.20;8.90;;;2.50;99.90;;;;;;5098837;28;20225;-80
2022/12/03 13:36:42;;;;;;;9.20;8.90;;;2.40;99.90;;;;;;5098004;28;20240;-79
2022/12/03 13:39:20;;;;;;;9.30;9.00;;;2.50;99.90;;;;;;5097546;28;20256;-79
2022/12/03 13:44:35;;;;;;;9.37;9.07;;;2.50;99.90;;;;;;5098218;28;20202;-81
2022/12/03 13:47:21;;;;;;;9.40;9.10;;;2.50;99.90;;;;;;5098014;28;20316;-79
2022/12/03 13:49:54;;;;;;;9.23;8.93;;;2.50;99.90;;;;;;5104837;28;20221;-80
2022/12/03 13:52:34;;;;;;;9.00;8.70;;;2.50;99.90;;;;;;5105755;28;20232;-79
2022/12/03 13:55:05;;;;;;;9.40;9.10;;;2.40;99.90;;;;;;5115843;28;20240;-80
2022/12/03 13:57:32;;;;;;;9.10;8.80;;;2.30;99.90;;;;;;5099655;28;20316;-80
2022/12/03 14:00:02;;;;;;;9.33;9.03;;;2.30;99.90;;;;;;5086555;28;20253;-80
2022/12/03 14:02:33;;;;;;;9.20;8.90;;;2.30;99.90;;;;;;5080900;28;20238;-80
2022/12/03 14:05:00;;;;;;;9.30;9.00;;;2.30;99.90;;;;;;5079519;28;20226;-79
2022/12/03 14:07:30;;;;;;;9.40;9.10;;;2.30;99.90;;;;;;5077514;28;21112;-79
2022/12/03 14:09:58;;;;;;;9.40;9.10;;;2.30;99.90;;;;;;5077402;28;20233;-80
2022/12/03 14:12:26;;;;;;;9.37;9.07;;;2.40;99.90;;;;;;5079895;28;20294;-79
2022/12/03 14:14:53;;;;;;;9.17;8.87;;;2.40;99.90;;;;;;5080490;28;20317;-79
2022/12/03 14:17:21;;;;;;;9.00;8.70;;;2.40;99.90;;;;;;5081731;28;20270;-79
2022/12/03 14:19:49;;;;;;;9.20;8.90;;;2.30;99.90;;;;;;5083757;28;20230;-79
2022/12/03 14:22:21;;;;;;;9.10;8.80;;;2.30;99.90;;;;;;5079446;28;20230;-79
2022/12/03 14:24:51;;;;;;;9.20;8.90;;;2.30;99.90;;;;;;5078816;28;20235;-80
2022/12/03 14:27:20;;;;;;;9.13;8.83;;;2.30;99.90;;;;;;5077776;28;20281;-80
2022/12/03 14:29:48;;;;;;;9.33;9.03;;;2.30;99.90;;;;;;5078942;28;20238;-80
2022/12/03 14:32:15;;;;;;;9.50;9.20;;;2.30;99.90;;;;;;5080992;28;20288;-79
2022/12/03 14:34:43;;;;;;;9.60;9.30;;;2.30;99.90;;;;;;5079427;28;20223;-78
2022/12/03 14:37:10;;;;;;;9.47;9.17;;;2.30;99.90;;;;;;5080943;28;20252;-79
2022/12/03 14:39:38;;;;;;;10.10;9.80;;;2.30;99.90;;;;;;5088560;28;20267;-80
2022/12/03 14:42:13;;;;;;;8.90;8.70;;;2.40;99.90;;;;;;5086373;28;20413;-79
2022/12/03 14:44:41;;;;;;;8.60;8.40;;;2.70;99.90;;;;;;5085249;28;20217;-78
2022/12/03 14:47:09;;;;;;;9.10;8.80;;;2.60;99.90;;;;;;5084960;28;20233;-79
2022/12/03 14:49:37;;;;;;;9.07;8.77;;;2.60;99.90;;;;;;5078491;28;20272;-79
2022/12/03 14:52:05;;;;;;;9.23;8.93;;;2.60;99.90;;;;;;5078523;28;20290;-79
2022/12/03 14:54:33;;;;;;;9.10;8.80;;;2.60;99.90;;;;;;5081378;28;20254;-79